首页
METAR-TAF:

METAR-TAF

机场 :

Newberry, 密歇根州, 美国

纬度: 46-18-40N, 经度: 085-27-26W, 海拔: 265米

当前天气观测

该预报发布于21分钟前的00:15 UTC
风速4节,风向南转西南
温度 19°C
湿度 78%
气压 1005 hPa
能見度: 11.3公里
散云层高于7000英尺
多云层高于8000英尺
多云层高于11000英尺
小雨

METAR: KERY 260015Z AUTO 21004KT 7SM -RA SCT070 BKN080 BKN110 19/15 A2969 RMK AO2 T01930148

时间: 20:36 (00:36 UTC)


TAF: 丢失

超过4000个机场的气象观测和天气预报(METAR&TAF报告)。

可查询的气象台以黄色和红色小点在地图上表示。

将鼠标移到小点上方,可查看气象台名称。

然后点击查看天气观测和预报。

如需切换地图:点击带黑十字的绿色按钮放大地图;点击带横线的绿色按钮缩小地图;或者点击绿色箭头查看邻近地区的地图。


METAR-TAF: